Terminal Aerodrome Forecast
Issued by NWS Wilmington, OH

Current Version | Previous Version | Graphics & Text | Print | Product List | Glossary On
Versions: 1 2 3 4 5 6 7 8 9 10 11 12 13 14 15
000
FTUS41 KILN 141740
TAFCMH
TAF
KCMH 141740Z 1418/1518 17006KT P6SM SCT060
     FM150100 VRB02KT P6SM SCT050
     FM151400 25005KT P6SM SCT035=

USA.gov is the U.S. government's official web portal to all federal, state and local government web resources and services.